Погода Темижбекскийна 2 недели

Ставропольский край, Россия

17 - 30 июля
  • 17июля
    Сегодня
    +23°
    +38°
    Ясно и безоблачно
    ВремяПогодаТемператураВлажностьДавлениеВетер, м/сВероятность осадков
    00:00Практически безоблачно+29°C26 %742 мм6.0 м/с2 %
    03:00Ясно и безоблачно+26°C27 %742 мм4.9 м/с2 %
    06:00Ясно и безоблачно+25°C30 %743 мм4.1 м/с2 %
    09:00Ясно и безоблачно+32°C27 %744 мм5.8 м/с2 %
    12:00Ясно и безоблачно+37°C20 %744 мм6.6 м/с2 %
    15:00Ясно и безоблачно+37°C19 %743 мм5.9 м/с2 %
    18:00Ясно и безоблачно+35°C21 %743 мм6.0 м/с2 %
    21:00Ясно и безоблачно+31°C26 %743 мм5.9 м/с2 %
  • 18июля
    Четверг
    +23°
    +38°
    Ясно и безоблачно
    ВремяПогодаТемператураВлажностьДавлениеВетер, м/сВероятность осадков
    00:00Ясно и безоблачно+28°C25 %744 мм4.8 м/с2 %
    03:00Ясно и безоблачно+24°C27 %744 мм3.2 м/с2 %
    06:00Ясно и безоблачно+24°C33 %744 мм3.2 м/с2 %
    09:00Ясно и безоблачно+32°C26 %744 мм4.1 м/с2 %
    12:00Ясно и безоблачно+36°C18 %743 мм5.0 м/с2 %
    15:00Ясно и безоблачно+37°C15 %742 мм4.6 м/с2 %
    18:00Ясно и безоблачно+36°C16 %742 мм4.6 м/с2 %
    21:00Ясно и безоблачно+30°C22 %742 мм3.0 м/с2 %
  • 19июля
    Пятница
    +24°
    +39°
    Ясно и безоблачно
    ВремяПогодаТемператураВлажностьДавлениеВетер, м/сВероятность осадков
    00:00Ясно и безоблачно+27°C26 %742 мм3.3 м/с2 %
    03:00Ясно и безоблачно+25°C31 %741 мм2.9 м/с2 %
    06:00Ясно и безоблачно+24°C48 %741 мм1.3 м/с2 %
    09:00Ясно и безоблачно+32°C29 %742 мм1.5 м/с2 %
    12:00Ясно и безоблачно+38°C19 %741 мм2.9 м/с2 %
    15:00Ясно и безоблачно+38°C17 %739 мм2.7 м/с2 %
    18:00Ясно и безоблачно+38°C17 %738 мм3.9 м/с2 %
    21:00Ясно и безоблачно+29°C30 %738 мм2.7 м/с2 %
  • 20июля
    Суббота
    +21°
    +37°
    Небольшая облачность, возможен дождь с грозой
    ВремяПогодаТемператураВлажностьДавлениеВетер, м/сВероятность осадков
    00:00Ясно и безоблачно+28°C30 %738 мм3.9 м/с2 %
    03:00Ясно и безоблачно+25°C48 %738 мм4.0 м/с2 %
    06:00Ясно и безоблачно+25°C52 %738 мм3.2 м/с2 %
    09:00Ясно и безоблачно+32°C39 %739 мм2.9 м/с2 %
    12:00Ясно и безоблачно+36°C30 %738 мм3.5 м/с8 %
    15:00Небольшая облачность, возможен дождь с грозой+36°C32 %739 мм4.0 м/с35 %
    18:00Практически безоблачно+33°C33 %739 мм4.0 м/с15 %
    21:00Небольшая облачность+28°C43 %740 мм2.0 м/с6 %
  • 21июля
    Воскресенье
    +23°
    +37°
    Ясно и безоблачно
    ВремяПогодаТемператураВлажностьДавлениеВетер, м/сВероятность осадков
    00:00Небольшая облачность+25°C52 %740 мм1.8 м/с2 %
    03:00Ясно и безоблачно+22°C59 %740 мм1.6 м/с2 %
    06:00Ясно и безоблачно+22°C61 %740 мм0.8 м/с2 %
    09:00Ясно и безоблачно+30°C40 %741 мм0.5 м/с2 %
    12:00Ясно и безоблачно+35°C30 %740 мм1.2 м/с2 %
    15:00Ясно и безоблачно+37°C27 %740 мм1.0 м/с2 %
    18:00Небольшая облачность+36°C27 %739 мм1.6 м/с14 %
    21:00Ясно и безоблачно+31°C37 %740 мм2.2 м/с3 %
Мы используем cookies
Соглашаюсь